sensor_id;sensor_type;location;lat;lon;timestamp;P1;durP1;ratioP1;P2;durP2;ratioP2
9489;SDS011;4783;42.734;23.288;2023-04-25T06:35:56;16.73;;;8.98;;
9489;SDS011;4783;42.734;23.288;2023-04-25T06:38:21;23.20;;;19.75;;
9489;SDS011;4783;42.734;23.288;2023-04-25T06:40:46;11.43;;;9.85;;
9489;SDS011;4783;42.734;23.288;2023-04-25T06:50:25;13.40;;;10.43;;
9489;SDS011;4783;42.734;23.288;2023-04-25T06:52:50;18.75;;;14.90;;
9489;SDS011;4783;42.734;23.288;2023-04-25T07:35:13;14.63;;;11.40;;
9489;SDS011;4783;42.734;23.288;2023-04-25T07:37:38;16.13;;;11.25;;
9489;SDS011;4783;42.734;23.288;2023-04-25T07:48:42;16.38;;;12.00;;
9489;SDS011;4783;42.734;23.288;2023-04-25T07:51:07;16.05;;;11.70;;
9489;SDS011;4783;42.734;23.288;2023-04-25T07:53:32;15.63;;;10.90;;
9489;SDS011;4783;42.734;23.288;2023-04-25T07:55:59;13.57;;;11.35;;
9489;SDS011;4783;42.734;23.288;2023-04-25T07:58:24;11.90;;;10.25;;
9489;SDS011;4783;42.734;23.288;2023-04-25T08:00:50;14.95;;;11.00;;
9489;SDS011;4783;42.734;23.288;2023-04-25T08:08:23;12.75;;;8.68;;
9489;SDS011;4783;42.734;23.288;2023-04-25T08:10:48;21.10;;;11.32;;
9489;SDS011;4783;42.734;23.288;2023-04-25T08:20:56;14.00;;;8.95;;
9489;SDS011;4783;42.734;23.288;2023-04-25T08:48:54;10.65;;;9.15;;
9489;SDS011;4783;42.734;23.288;2023-04-25T08:51:21;11.77;;;9.63;;
9489;SDS011;4783;42.734;23.288;2023-04-25T08:53:50;16.90;;;9.98;;
9489;SDS011;4783;42.734;23.288;2023-04-25T08:56:16;13.50;;;9.07;;
9489;SDS011;4783;42.734;23.288;2023-04-25T08:58:43;10.15;;;7.93;;
9489;SDS011;4783;42.734;23.288;2023-04-25T09:01:08;7.88;;;7.07;;
9489;SDS011;4783;42.734;23.288;2023-04-25T09:03:34;7.32;;;6.45;;
9489;SDS011;4783;42.734;23.288;2023-04-25T09:06:00;9.07;;;6.30;;
9489;SDS011;4783;42.734;23.288;2023-04-25T09:08:25;6.90;;;5.53;;
9489;SDS011;4783;42.734;23.288;2023-04-25T09:10:51;8.63;;;5.43;;
9489;SDS011;4783;42.734;23.288;2023-04-25T09:13:23;5.97;;;5.43;;
9489;SDS011;4783;42.734;23.288;2023-04-25T09:15:53;6.32;;;4.72;;
9489;SDS011;4783;42.734;23.288;2023-04-25T09:18:28;7.38;;;5.45;;
9489;SDS011;4783;42.734;23.288;2023-04-25T09:20:54;5.10;;;4.10;;
9489;SDS011;4783;42.734;23.288;2023-04-25T09:23:20;5.13;;;4.05;;
9489;SDS011;4783;42.734;23.288;2023-04-25T09:25:49;6.60;;;4.10;;
9489;SDS011;4783;42.734;23.288;2023-04-25T09:28:14;5.40;;;4.90;;
9489;SDS011;4783;42.734;23.288;2023-04-25T09:30:40;5.53;;;4.70;;
9489;SDS011;4783;42.734;23.288;2023-04-25T09:33:06;6.18;;;5.55;;
9489;SDS011;4783;42.734;23.288;2023-04-25T09:35:41;4.25;;;3.83;;
9489;SDS011;4783;42.734;23.288;2023-04-25T09:38:10;3.63;;;3.33;;
9489;SDS011;4783;42.734;23.288;2023-04-25T09:40:40;6.32;;;4.93;;
9489;SDS011;4783;42.734;23.288;2023-04-25T09:43:09;4.55;;;2.85;;
9489;SDS011;4783;42.734;23.288;2023-04-25T09:45:40;3.80;;;2.97;;
9489;SDS011;4783;42.734;23.288;2023-04-25T09:48:06;2.72;;;2.53;;
9489;SDS011;4783;42.734;23.288;2023-04-25T09:50:31;3.65;;;2.60;;
9489;SDS011;4783;42.734;23.288;2023-04-25T09:53:05;3.05;;;2.67;;
9489;SDS011;4783;42.734;23.288;2023-04-25T09:55:32;2.58;;;2.30;;
9489;SDS011;4783;42.734;23.288;2023-04-25T09:57:59;3.15;;;2.20;;
9489;SDS011;4783;42.734;23.288;2023-04-25T10:00:26;2.90;;;2.00;;
9489;SDS011;4783;42.734;23.288;2023-04-25T10:02:51;2.30;;;2.03;;
9489;SDS011;4783;42.734;23.288;2023-04-25T10:05:17;2.42;;;2.15;;
9489;SDS011;4783;42.734;23.288;2023-04-25T10:07:43;2.65;;;2.30;;
9489;SDS011;4783;42.734;23.288;2023-04-25T10:10:09;2.70;;;2.15;;
9489;SDS011;4783;42.734;23.288;2023-04-25T10:12:36;4.15;;;2.53;;
9489;SDS011;4783;42.734;23.288;2023-04-25T10:15:02;3.78;;;2.30;;
9489;SDS011;4783;42.734;23.288;2023-04-25T10:17:27;4.15;;;2.72;;
9489;SDS011;4783;42.734;23.288;2023-04-25T10:26:19;2.45;;;2.25;;
9489;SDS011;4783;42.734;23.288;2023-04-25T10:31:22;4.90;;;2.30;;
9489;SDS011;4783;42.734;23.288;2023-04-25T10:33:48;2.70;;;2.35;;
9489;SDS011;4783;42.734;23.288;2023-04-25T10:42:30;4.10;;;2.67;;
9489;SDS011;4783;42.734;23.288;2023-04-25T10:45:04;2.95;;;2.75;;
9489;SDS011;4783;42.734;23.288;2023-04-25T10:47:36;5.55;;;2.42;;
9489;SDS011;4783;42.734;23.288;2023-04-25T10:50:08;4.68;;;2.47;;
9489;SDS011;4783;42.734;23.288;2023-04-25T10:52:33;3.58;;;2.25;;
9489;SDS011;4783;42.734;23.288;2023-04-25T10:54:58;3.78;;;2.10;;
9489;SDS011;4783;42.734;23.288;2023-04-25T11:02:30;2.30;;;2.10;;
9489;SDS011;4783;42.734;23.288;2023-04-25T11:04:55;2.63;;;2.03;;
9489;SDS011;4783;42.734;23.288;2023-04-25T11:09:49;2.38;;;2.00;;
9489;SDS011;4783;42.734;23.288;2023-04-25T11:12:15;2.60;;;1.70;;
9489;SDS011;4783;42.734;23.288;2023-04-25T11:14:41;4.20;;;1.92;;
9489;SDS011;4783;42.734;23.288;2023-04-25T11:17:06;2.10;;;1.90;;
9489;SDS011;4783;42.734;23.288;2023-04-25T11:19:32;1.90;;;1.58;;
9489;SDS011;4783;42.734;23.288;2023-04-25T11:21:58;1.98;;;1.73;;
9489;SDS011;4783;42.734;23.288;2023-04-25T11:24:30;2.38;;;1.55;;
9489;SDS011;4783;42.734;23.288;2023-04-25T11:26:57;1.80;;;1.70;;
9489;SDS011;4783;42.734;23.288;2023-04-25T11:29:23;1.70;;;1.60;;
9489;SDS011;4783;42.734;23.288;2023-04-25T11:46:08;2.17;;;1.98;;
9489;SDS011;4783;42.734;23.288;2023-04-25T11:48:42;3.60;;;1.77;;
9489;SDS011;4783;42.734;23.288;2023-04-25T11:51:08;2.42;;;2.22;;
9489;SDS011;4783;42.734;23.288;2023-04-25T11:53:34;3.00;;;2.35;;
9489;SDS011;4783;42.734;23.288;2023-04-25T11:55:59;2.13;;;1.98;;
9489;SDS011;4783;42.734;23.288;2023-04-25T11:58:27;2.97;;;1.83;;
9489;SDS011;4783;42.734;23.288;2023-04-25T12:00:53;3.90;;;2.00;;
9489;SDS011;4783;42.734;23.288;2023-04-25T12:03:18;4.35;;;1.70;;
9489;SDS011;4783;42.734;23.288;2023-04-25T12:05:44;2.10;;;1.90;;
9489;SDS011;4783;42.734;23.288;2023-04-25T12:08:10;2.63;;;2.00;;
9489;SDS011;4783;42.734;23.288;2023-04-25T12:10:37;3.25;;;2.00;;
9489;SDS011;4783;42.734;23.288;2023-04-25T12:13:16;2.70;;;2.10;;
9489;SDS011;4783;42.734;23.288;2023-04-25T12:15:42;2.13;;;1.92;;
9489;SDS011;4783;42.734;23.288;2023-04-25T12:18:07;2.17;;;1.80;;
9489;SDS011;4783;42.734;23.288;2023-04-25T12:38:08;4.50;;;2.47;;
9489;SDS011;4783;42.734;23.288;2023-04-25T12:40:33;3.60;;;2.20;;
9489;SDS011;4783;42.734;23.288;2023-04-25T12:42:58;2.38;;;2.20;;
9489;SDS011;4783;42.734;23.288;2023-04-25T12:45:24;2.33;;;2.05;;
9489;SDS011;4783;42.734;23.288;2023-04-25T12:47:49;2.20;;;2.10;;
9489;SDS011;4783;42.734;23.288;2023-04-25T12:50:14;2.40;;;2.20;;
9489;SDS011;4783;42.734;23.288;2023-04-25T12:52:39;3.65;;;2.33;;
9489;SDS011;4783;42.734;23.288;2023-04-25T13:58:13;6.30;;;5.32;;
9489;SDS011;4783;42.734;23.288;2023-04-25T14:00:38;8.10;;;5.03;;
9489;SDS011;4783;42.734;23.288;2023-04-25T14:03:04;8.18;;;4.53;;
9489;SDS011;4783;42.734;23.288;2023-04-25T14:05:32;6.32;;;4.47;;
9489;SDS011;4783;42.734;23.288;2023-04-25T14:07:57;5.00;;;4.50;;
9489;SDS011;4783;42.734;23.288;2023-04-25T14:10:23;5.72;;;4.40;;
9489;SDS011;4783;42.734;23.288;2023-04-25T14:12:48;4.88;;;3.85;;
9489;SDS011;4783;42.734;23.288;2023-04-25T14:15:14;5.90;;;4.97;;
9489;SDS011;4783;42.734;23.288;2023-04-25T14:17:39;4.10;;;3.70;;
9489;SDS011;4783;42.734;23.288;2023-04-25T14:20:05;6.15;;;3.70;;
9489;SDS011;4783;42.734;23.288;2023-04-25T14:22:30;5.93;;;4.60;;
9489;SDS011;4783;42.734;23.288;2023-04-25T14:24:56;7.22;;;4.20;;
9489;SDS011;4783;42.734;23.288;2023-04-25T14:27:21;4.90;;;3.08;;
9489;SDS011;4783;42.734;23.288;2023-04-25T14:29:46;3.13;;;2.83;;
9489;SDS011;4783;42.734;23.288;2023-04-25T14:32:12;6.13;;;3.75;;
9489;SDS011;4783;42.734;23.288;2023-04-25T14:34:37;3.88;;;2.70;;
9489;SDS011;4783;42.734;23.288;2023-04-25T14:37:03;2.30;;;1.90;;
9489;SDS011;4783;42.734;23.288;2023-04-25T14:39:28;3.63;;;2.30;;
9489;SDS011;4783;42.734;23.288;2023-04-25T14:41:53;3.88;;;1.70;;
9489;SDS011;4783;42.734;23.288;2023-04-25T14:44:18;4.15;;;2.58;;
9489;SDS011;4783;42.734;23.288;2023-04-25T14:46:43;4.30;;;2.70;;
9489;SDS011;4783;42.734;23.288;2023-04-25T14:49:09;2.70;;;2.50;;
9489;SDS011;4783;42.734;23.288;2023-04-25T14:51:35;2.90;;;2.30;;
9489;SDS011;4783;42.734;23.288;2023-04-25T14:54:00;2.10;;;1.70;;
9489;SDS011;4783;42.734;23.288;2023-04-25T14:56:25;2.97;;;2.13;;
9489;SDS011;4783;42.734;23.288;2023-04-25T14:58:50;3.35;;;3.00;;
9489;SDS011;4783;42.734;23.288;2023-04-25T15:01:16;4.32;;;2.63;;
9489;SDS011;4783;42.734;23.288;2023-04-25T15:03:41;3.42;;;2.47;;
9489;SDS011;4783;42.734;23.288;2023-04-25T15:06:06;3.63;;;2.97;;
